AirNav   Air Wisconsin Up To $57,000 Bonus
 
 1170 users online  

0XA9 Methodist Mansfield Medical Center Heliport
Mansfield, Texas, USA

GOING TO MANSFIELD?


FAA INFORMATION EFFECTIVE 08 OCTOBER 2020

Location

FAA Identifier: 0XA9
Lat/Long: 32-34-02.0100N 097-05-44.1200W
32-34.033500N 097-05.735333W
32.5672250,-97.0955889
(estimated)
Elevation: 633 ft. / 193 m (estimated)
From city: 3 miles E of MANSFIELD, TX
Time zone: UTC -5 (UTC -6 during Standard Time)
Zip code: 76063

Heliport Operations

Heliport use: Private use, MEDICAL USE.
Activation date: 11/2006
Control tower: no
ARTCC: FORT WORTH CENTER
FSS: FORT WORTH FLIGHT SERVICE STATION
Attendance: UNATNDD
Wind indicator: lighted
Segmented circle: no
Lights: SS-SR

Heliport Communications

WX ASOS at GKY (6 nm N): 127.375 (817-557-0251)
WX AWOS-3P at GPM (8 nm N): 118.475 (972-606-1433)
WX AWOS-3 at FWS (11 nm W): 120.025 (817-426-4172)
WX AWOS-3 at JWY (11 nm SE): 119.575 (972-937-4747)
WX ASOS at RBD (13 nm NE): PHONE 214-330-5317
WX AWOS-3 at LNC (19 nm E): 118.975 (972-227-0471)
WX AWOS-3 at 49T (19 nm NE): 135.425 (214-670-1243)

Nearby radio navigation aids

VOR radial/distance  VOR name  Freq  Var
TTTr183/18.3MAVERICK VOR/DME113.1006E
FUZr162/19.8RANGER VORTAC115.7006E
CVEr201/21.7COWBOY VOR/DME116.2006E

 
NDB name  Hdg/Dist  Freq  Var  ID
MESQUITE240/32.124803EPQF .--. --.- ..-.

Heliport Services

Runway Information

Helipad H1

Dimensions: 46 x 46 ft. / 14 x 14 m
Surface: concrete
Runway edge lights: PERI
Latitude: 32-34.033500N
Longitude: 097-05.735333W
Elevation: 633.0 ft.
Traffic pattern: leftleft

Heliport Ownership and Management from official FAA records

Ownership: Privately-owned
Owner: METHODIST HEALTH SYSTEM
2700 E. BROAD ST
MANSFIELD, TX 76063
Phone 682-622-2059
Manager: TERRY BURKLEY
1441 N. BECKLEY AVE
DALLAS, TX 75203
Phone 214-947-8447

Additional Remarks

OWNER DESIRES HELIPORT NOT BE CHARTED.
FOR CD CTC REGIONAL APCH AT 972-615-2799.

Instrument Procedures

There are no published instrument procedures at 0XA9.

Some nearby airports with instrument procedures:

KGKY - Arlington Municipal Airport (6 nm N)
KGPM - Grand Prairie Municipal Airport (8 nm N)
KFWS - Fort Worth Spinks Airport (11 nm W)
KJWY - Mid-Way Regional Airport (11 nm SE)
KRBD - Dallas Executive Airport (13 nm NE)
KLNC - Lancaster Regional Airport (19 nm E)
 
Loc | Ops | Rwys | IFR | FBO | Links
Com | Nav | Svcs | Stats | Notes

City of Fort Worth
 
Area around 0XA9 (Methodist Mansfield Medical Center Heliport)
 
Road maps at: MapQuest Bing Google
 
Aerial photo
No photo
 
Sectional chart

 
Airport distance calculator
Flying to Methodist Mansfield Medical Center Heliport? Find the distance to fly.

From to 0XA9

Sunrise and sunset
Times for 30-Oct-2020
 Local
(UTC-5)
 Zulu
(UTC)
Morning civil twilight07:2112:21
Sunrise07:4612:46
Sunset18:3823:38
Evening civil twilight19:0300:03

Current date and time
Zulu (UTC)  30-Oct-2020 21:43:37
Local (UTC-5)  30-Oct-2020 16:43:37
 
METAR
KGKY 
6nm N 
302053Z 11004KT 10SM CLR 21/01 A3023 RMK AO2 SLP233 T02060006 56028
KGPM 
8nm N 
301135Z AUTO 35003KT 10SM CLR 04/02 A3030 RMK AO2 T00420022
KFWS 
10nm W 
302050Z 09003KT 10SM CLR 21/M01 A3024
KJWY 
11nm SE 
302115Z AUTO 00000KT 10SM CLR 19/04 A3023 RMK AO2 T01880036
KRBD 
14nm NE 
302053Z VRB05KT 10SM CLR 19/02 A3022 RMK AO2 SLP231 T01890022 56027
KLNC 
19nm E 
302115Z AUTO 00000KT 10SM CLR 19/03 A3024 RMK AO2 T01850029
TAF
KGKY 
6nm N 
301725Z 3018/3118 VRB02KT P6SM FEW250 FM310300 14003KT P6SM FEW250 FM311600 16007KT P6SM SCT250
NOTAMs
Click for the latest NOTAMs
NOTAMs are issued by the DoD/FAA and will open in a separate window not controlled by AirNav.

 

 
 

Would you like to see your business listed on this page?

 If your business provides an interesting product or service to pilots, flight crews, aircraft, or users of the Methodist Mansfield Medical Center Heliport, you should consider listing it here.  To start the listing process, click on the button below
 
Add a business
 

Other Pages about Methodist Mansfield Medical Center Heliport

Update a link
 
Copyright © AirNav, LLC. All rights reserved. Privacy Policy  Contact